Longwood, North Carolina
Current Conditions -  °F | °C
As of 9:53 AM on Sunday 23 Nov 2014 (Local Time) from KCRE Reporting Station
Light Rain Light Rain  
Wind Chill: 59°   Ceiling: 10000
Heat Index: 59°   Visibility: 4mi
Dew Point: 56°   Wind: 13mph
Humidity: 90%   Direction: 90°E
Pressure: 30.2"   Gusts: NA
Location:  34°N, 78.54°W
Report Text: KCRE 231453Z 09011KT 4SM -RA BR FEW080 OVC100 15/13 A3020 RMK AO1 SLP228 P0013 60025 T01500133 58008
Loading
Personal Weather Stations






























Interactive Weather Map New forecast layout! Learn more

10-Day Weather Forecast

Advertisements
Track Severe Weather on mobile